sensor_id;sensor_type;location;lat;lon;timestamp;P1;durP1;ratioP1;P2;durP2;ratioP2
75456;SDS011;64036;48.266;14.192;2023-04-24T00:00:28;1.50;;;1.30;;
75456;SDS011;64036;48.266;14.192;2023-04-24T00:02:54;1.80;;;1.50;;
75456;SDS011;64036;48.266;14.192;2023-04-24T00:05:25;1.80;;;1.60;;
75456;SDS011;64036;48.266;14.192;2023-04-24T00:07:53;2.00;;;1.40;;
75456;SDS011;64036;48.266;14.192;2023-04-24T00:10:23;2.70;;;1.80;;
75456;SDS011;64036;48.266;14.192;2023-04-24T00:12:49;4.20;;;1.70;;
75456;SDS011;64036;48.266;14.192;2023-04-24T00:15:17;3.70;;;1.90;;
75456;SDS011;64036;48.266;14.192;2023-04-24T00:17:48;2.50;;;1.60;;
75456;SDS011;64036;48.266;14.192;2023-04-24T00:20:22;2.20;;;1.80;;
75456;SDS011;64036;48.266;14.192;2023-04-24T00:22:50;3.40;;;1.90;;
75456;SDS011;64036;48.266;14.192;2023-04-24T00:25:18;4.10;;;1.80;;
75456;SDS011;64036;48.266;14.192;2023-04-24T00:27:49;3.20;;;1.80;;
75456;SDS011;64036;48.266;14.192;2023-04-24T00:30:23;3.20;;;1.90;;
75456;SDS011;64036;48.266;14.192;2023-04-24T00:32:49;3.20;;;1.90;;
75456;SDS011;64036;48.266;14.192;2023-04-24T00:35:15;3.10;;;1.90;;
75456;SDS011;64036;48.266;14.192;2023-04-24T00:37:46;3.40;;;1.70;;
75456;SDS011;64036;48.266;14.192;2023-04-24T00:40:12;2.60;;;1.90;;
75456;SDS011;64036;48.266;14.192;2023-04-24T00:42:43;4.40;;;2.20;;
75456;SDS011;64036;48.266;14.192;2023-04-24T00:45:10;3.20;;;1.90;;
75456;SDS011;64036;48.266;14.192;2023-04-24T00:47:36;3.00;;;1.90;;
75456;SDS011;64036;48.266;14.192;2023-04-24T00:50:06;3.20;;;2.00;;
75456;SDS011;64036;48.266;14.192;2023-04-24T00:52:32;3.70;;;2.00;;
75456;SDS011;64036;48.266;14.192;2023-04-24T00:55:11;2.80;;;1.90;;
75456;SDS011;64036;48.266;14.192;2023-04-24T00:57:37;5.00;;;2.30;;
75456;SDS011;64036;48.266;14.192;2023-04-24T01:00:05;4.70;;;2.10;;
75456;SDS011;64036;48.266;14.192;2023-04-24T01:02:40;3.90;;;2.10;;
75456;SDS011;64036;48.266;14.192;2023-04-24T01:05:14;4.30;;;2.00;;
75456;SDS011;64036;48.266;14.192;2023-04-24T01:07:44;3.40;;;1.90;;
75456;SDS011;64036;48.266;14.192;2023-04-24T01:10:14;4.00;;;2.20;;
75456;SDS011;64036;48.266;14.192;2023-04-24T01:12:46;2.90;;;1.90;;
75456;SDS011;64036;48.266;14.192;2023-04-24T01:15:12;2.80;;;1.90;;
75456;SDS011;64036;48.266;14.192;2023-04-24T01:17:37;3.20;;;2.00;;
75456;SDS011;64036;48.266;14.192;2023-04-24T01:20:04;2.80;;;2.00;;
75456;SDS011;64036;48.266;14.192;2023-04-24T01:22:36;5.40;;;2.00;;
75456;SDS011;64036;48.266;14.192;2023-04-24T01:25:08;2.90;;;1.90;;
75456;SDS011;64036;48.266;14.192;2023-04-24T01:30:09;2.00;;;1.60;;
75456;SDS011;64036;48.266;14.192;2023-04-24T01:32:37;2.00;;;1.30;;
75456;SDS011;64036;48.266;14.192;2023-04-24T01:35:07;2.80;;;1.60;;
75456;SDS011;64036;48.266;14.192;2023-04-24T01:37:35;2.50;;;1.70;;
75456;SDS011;64036;48.266;14.192;2023-04-24T01:40:06;3.80;;;1.80;;
75456;SDS011;64036;48.266;14.192;2023-04-24T01:42:37;2.20;;;1.50;;
75456;SDS011;64036;48.266;14.192;2023-04-24T01:45:09;2.20;;;1.50;;
75456;SDS011;64036;48.266;14.192;2023-04-24T01:47:41;2.10;;;1.50;;
75456;SDS011;64036;48.266;14.192;2023-04-24T01:50:10;3.40;;;1.60;;
75456;SDS011;64036;48.266;14.192;2023-04-24T01:52:37;1.80;;;1.50;;
75456;SDS011;64036;48.266;14.192;2023-04-24T01:55:08;1.60;;;1.40;;
75456;SDS011;64036;48.266;14.192;2023-04-24T01:57:42;3.20;;;1.60;;
75456;SDS011;64036;48.266;14.192;2023-04-24T02:00:14;1.90;;;1.50;;
75456;SDS011;64036;48.266;14.192;2023-04-24T02:02:46;3.30;;;1.60;;
75456;SDS011;64036;48.266;14.192;2023-04-24T02:05:18;2.30;;;1.30;;
75456;SDS011;64036;48.266;14.192;2023-04-24T02:07:46;3.80;;;1.80;;
75456;SDS011;64036;48.266;14.192;2023-04-24T02:10:12;4.00;;;1.50;;
75456;SDS011;64036;48.266;14.192;2023-04-24T02:12:40;1.70;;;1.40;;
75456;SDS011;64036;48.266;14.192;2023-04-24T02:15:06;1.70;;;1.30;;
75456;SDS011;64036;48.266;14.192;2023-04-24T02:17:33;2.30;;;1.40;;
75456;SDS011;64036;48.266;14.192;2023-04-24T02:19:59;2.00;;;1.50;;
75456;SDS011;64036;48.266;14.192;2023-04-24T02:22:27;1.70;;;1.40;;
75456;SDS011;64036;48.266;14.192;2023-04-24T02:24:57;3.40;;;1.70;;
75456;SDS011;64036;48.266;14.192;2023-04-24T02:27:22;2.10;;;1.70;;
75456;SDS011;64036;48.266;14.192;2023-04-24T02:29:48;2.30;;;1.70;;
75456;SDS011;64036;48.266;14.192;2023-04-24T02:32:19;2.80;;;1.60;;
75456;SDS011;64036;48.266;14.192;2023-04-24T02:34:45;3.50;;;1.90;;
75456;SDS011;64036;48.266;14.192;2023-04-24T02:37:11;2.00;;;1.50;;
75456;SDS011;64036;48.266;14.192;2023-04-24T02:39:45;2.80;;;1.50;;
75456;SDS011;64036;48.266;14.192;2023-04-24T02:42:14;2.60;;;1.60;;
75456;SDS011;64036;48.266;14.192;2023-04-24T02:44:46;2.30;;;1.60;;
75456;SDS011;64036;48.266;14.192;2023-04-24T02:47:15;2.50;;;1.50;;
75456;SDS011;64036;48.266;14.192;2023-04-24T02:49:43;1.80;;;1.60;;
75456;SDS011;64036;48.266;14.192;2023-04-24T02:52:14;3.70;;;2.00;;
75456;SDS011;64036;48.266;14.192;2023-04-24T02:54:40;3.50;;;1.80;;
75456;SDS011;64036;48.266;14.192;2023-04-24T02:57:09;2.20;;;1.70;;
75456;SDS011;64036;48.266;14.192;2023-04-24T02:59:40;2.50;;;1.60;;
75456;SDS011;64036;48.266;14.192;2023-04-24T03:02:11;2.70;;;2.00;;
75456;SDS011;64036;48.266;14.192;2023-04-24T03:04:43;3.10;;;1.80;;
75456;SDS011;64036;48.266;14.192;2023-04-24T03:07:11;2.90;;;1.90;;
75456;SDS011;64036;48.266;14.192;2023-04-24T03:09:37;2.10;;;1.70;;
75456;SDS011;64036;48.266;14.192;2023-04-24T03:12:03;2.50;;;1.80;;
75456;SDS011;64036;48.266;14.192;2023-04-24T03:14:28;3.00;;;1.80;;
75456;SDS011;64036;48.266;14.192;2023-04-24T03:17:00;4.50;;;2.00;;
75456;SDS011;64036;48.266;14.192;2023-04-24T03:19:25;2.30;;;1.90;;
75456;SDS011;64036;48.266;14.192;2023-04-24T03:21:51;3.00;;;2.10;;
75456;SDS011;64036;48.266;14.192;2023-04-24T03:24:23;4.80;;;2.10;;
75456;SDS011;64036;48.266;14.192;2023-04-24T03:26:49;3.10;;;2.30;;
75456;SDS011;64036;48.266;14.192;2023-04-24T03:29:15;3.80;;;2.10;;
75456;SDS011;64036;48.266;14.192;2023-04-24T03:31:49;4.10;;;2.50;;
75456;SDS011;64036;48.266;14.192;2023-04-24T03:34:18;5.00;;;2.30;;
75456;SDS011;64036;48.266;14.192;2023-04-24T03:36:45;2.90;;;1.80;;
75456;SDS011;64036;48.266;14.192;2023-04-24T03:39:15;3.00;;;2.10;;
75456;SDS011;64036;48.266;14.192;2023-04-24T03:41:41;3.10;;;2.30;;
75456;SDS011;64036;48.266;14.192;2023-04-24T03:44:09;3.20;;;2.20;;
75456;SDS011;64036;48.266;14.192;2023-04-24T03:46:40;4.30;;;2.50;;
75456;SDS011;64036;48.266;14.192;2023-04-24T03:49:09;3.20;;;2.30;;
75456;SDS011;64036;48.266;14.192;2023-04-24T03:51:40;4.60;;;2.40;;
75456;SDS011;64036;48.266;14.192;2023-04-24T03:54:09;3.80;;;2.30;;
75456;SDS011;64036;48.266;14.192;2023-04-24T03:56:39;4.50;;;2.70;;
75456;SDS011;64036;48.266;14.192;2023-04-24T03:59:08;2.70;;;2.10;;
75456;SDS011;64036;48.266;14.192;2023-04-24T04:01:39;4.70;;;2.70;;
75456;SDS011;64036;48.266;14.192;2023-04-24T04:04:11;3.70;;;2.20;;
75456;SDS011;64036;48.266;14.192;2023-04-24T04:06:45;2.70;;;2.00;;
75456;SDS011;64036;48.266;14.192;2023-04-24T04:09:19;3.70;;;2.40;;
75456;SDS011;64036;48.266;14.192;2023-04-24T04:11:47;5.10;;;2.60;;
75456;SDS011;64036;48.266;14.192;2023-04-24T04:14:18;3.30;;;2.00;;
75456;SDS011;64036;48.266;14.192;2023-04-24T04:16:44;4.10;;;2.40;;
75456;SDS011;64036;48.266;14.192;2023-04-24T04:19:15;4.10;;;2.20;;
75456;SDS011;64036;48.266;14.192;2023-04-24T04:21:44;3.60;;;2.10;;
75456;SDS011;64036;48.266;14.192;2023-04-24T04:24:14;3.00;;;2.00;;
75456;SDS011;64036;48.266;14.192;2023-04-24T04:26:49;3.80;;;2.00;;
75456;SDS011;64036;48.266;14.192;2023-04-24T04:29:19;2.80;;;1.90;;
75456;SDS011;64036;48.266;14.192;2023-04-24T04:31:47;2.00;;;1.70;;
75456;SDS011;64036;48.266;14.192;2023-04-24T04:34:16;1.90;;;1.50;;
75456;SDS011;64036;48.266;14.192;2023-04-24T04:36:42;3.20;;;1.60;;
75456;SDS011;64036;48.266;14.192;2023-04-24T04:39:11;2.70;;;1.70;;
75456;SDS011;64036;48.266;14.192;2023-04-24T04:41:37;2.10;;;1.60;;
75456;SDS011;64036;48.266;14.192;2023-04-24T04:44:05;1.80;;;1.50;;
75456;SDS011;64036;48.266;14.192;2023-04-24T04:46:34;2.90;;;1.50;;
75456;SDS011;64036;48.266;14.192;2023-04-24T04:49:05;2.80;;;1.50;;
75456;SDS011;64036;48.266;14.192;2023-04-24T04:51:34;3.30;;;1.80;;
75456;SDS011;64036;48.266;14.192;2023-04-24T04:54:05;2.00;;;1.40;;
75456;SDS011;64036;48.266;14.192;2023-04-24T04:56:31;3.90;;;1.80;;
75456;SDS011;64036;48.266;14.192;2023-04-24T04:58:59;1.90;;;1.60;;
75456;SDS011;64036;48.266;14.192;2023-04-24T05:01:25;3.50;;;1.60;;
75456;SDS011;64036;48.266;14.192;2023-04-24T05:03:55;2.20;;;1.50;;
75456;SDS011;64036;48.266;14.192;2023-04-24T05:06:21;2.40;;;1.50;;
75456;SDS011;64036;48.266;14.192;2023-04-24T05:08:52;1.40;;;1.20;;
75456;SDS011;64036;48.266;14.192;2023-04-24T05:11:22;2.10;;;1.70;;
75456;SDS011;64036;48.266;14.192;2023-04-24T05:13:51;2.50;;;1.70;;
75456;SDS011;64036;48.266;14.192;2023-04-24T05:16:18;2.20;;;1.60;;
75456;SDS011;64036;48.266;14.192;2023-04-24T05:18:43;1.90;;;1.60;;
75456;SDS011;64036;48.266;14.192;2023-04-24T05:21:09;2.20;;;1.60;;
75456;SDS011;64036;48.266;14.192;2023-04-24T05:23:34;2.80;;;1.50;;
75456;SDS011;64036;48.266;14.192;2023-04-24T05:26:01;2.60;;;1.50;;
75456;SDS011;64036;48.266;14.192;2023-04-24T05:28:32;1.50;;;1.40;;
75456;SDS011;64036;48.266;14.192;2023-04-24T05:31:02;1.70;;;1.30;;
75456;SDS011;64036;48.266;14.192;2023-04-24T05:33:36;1.80;;;1.30;;
75456;SDS011;64036;48.266;14.192;2023-04-24T05:36:03;2.50;;;1.30;;
75456;SDS011;64036;48.266;14.192;2023-04-24T05:38:30;1.00;;;0.90;;
75456;SDS011;64036;48.266;14.192;2023-04-24T05:40:59;1.90;;;1.20;;
75456;SDS011;64036;48.266;14.192;2023-04-24T05:43:25;1.70;;;1.10;;
75456;SDS011;64036;48.266;14.192;2023-04-24T05:45:51;2.00;;;1.20;;
75456;SDS011;64036;48.266;14.192;2023-04-24T05:48:21;1.30;;;1.10;;
75456;SDS011;64036;48.266;14.192;2023-04-24T05:50:48;1.30;;;1.20;;
75456;SDS011;64036;48.266;14.192;2023-04-24T05:53:14;1.40;;;1.00;;
75456;SDS011;64036;48.266;14.192;2023-04-24T05:55:50;1.70;;;1.00;;
75456;SDS011;64036;48.266;14.192;2023-04-24T05:58:16;1.50;;;1.10;;
75456;SDS011;64036;48.266;14.192;2023-04-24T06:00:49;1.20;;;1.10;;
75456;SDS011;64036;48.266;14.192;2023-04-24T06:03:15;1.10;;;1.00;;
75456;SDS011;64036;48.266;14.192;2023-04-24T06:05:41;2.50;;;1.10;;
75456;SDS011;64036;48.266;14.192;2023-04-24T06:08:07;1.40;;;0.80;;
75456;SDS011;64036;48.266;14.192;2023-04-24T06:10:35;0.80;;;0.80;;
75456;SDS011;64036;48.266;14.192;2023-04-24T06:13:01;2.30;;;0.90;;
75456;SDS011;64036;48.266;14.192;2023-04-24T06:15:30;1.10;;;1.00;;
75456;SDS011;64036;48.266;14.192;2023-04-24T06:18:16;1.30;;;0.90;;
75456;SDS011;64036;48.266;14.192;2023-04-24T06:20:46;1.50;;;0.90;;
75456;SDS011;64036;48.266;14.192;2023-04-24T06:23:12;1.30;;;1.00;;
75456;SDS011;64036;48.266;14.192;2023-04-24T06:25:41;1.20;;;1.00;;
75456;SDS011;64036;48.266;14.192;2023-04-24T06:28:09;1.00;;;0.80;;
75456;SDS011;64036;48.266;14.192;2023-04-24T06:33:07;3.10;;;1.10;;
75456;SDS011;64036;48.266;14.192;2023-04-24T06:35:33;2.30;;;1.00;;
75456;SDS011;64036;48.266;14.192;2023-04-24T06:37:58;0.90;;;0.80;;
75456;SDS011;64036;48.266;14.192;2023-04-24T06:40:24;1.30;;;0.90;;
75456;SDS011;64036;48.266;14.192;2023-04-24T06:42:50;1.60;;;0.90;;
75456;SDS011;64036;48.266;14.192;2023-04-24T06:45:16;1.20;;;1.10;;
75456;SDS011;64036;48.266;14.192;2023-04-24T06:47:41;3.10;;;1.10;;
75456;SDS011;64036;48.266;14.192;2023-04-24T06:50:07;0.90;;;0.90;;
75456;SDS011;64036;48.266;14.192;2023-04-24T06:52:33;1.50;;;1.10;;
75456;SDS011;64036;48.266;14.192;2023-04-24T06:55:06;2.20;;;0.90;;
75456;SDS011;64036;48.266;14.192;2023-04-24T06:57:32;2.50;;;1.00;;
75456;SDS011;64036;48.266;14.192;2023-04-24T07:00:05;1.50;;;0.90;;
75456;SDS011;64036;48.266;14.192;2023-04-24T07:02:36;1.80;;;1.00;;
75456;SDS011;64036;48.266;14.192;2023-04-24T07:05:05;1.00;;;1.00;;
75456;SDS011;64036;48.266;14.192;2023-04-24T07:07:36;1.20;;;1.10;;
75456;SDS011;64036;48.266;14.192;2023-04-24T07:10:04;2.00;;;1.10;;
75456;SDS011;64036;48.266;14.192;2023-04-24T07:12:30;2.50;;;1.10;;
75456;SDS011;64036;48.266;14.192;2023-04-24T07:14:57;0.90;;;0.90;;
75456;SDS011;64036;48.266;14.192;2023-04-24T07:17:25;0.80;;;0.80;;
75456;SDS011;64036;48.266;14.192;2023-04-24T07:19:51;1.00;;;1.00;;
75456;SDS011;64036;48.266;14.192;2023-04-24T07:22:17;1.90;;;1.00;;
75456;SDS011;64036;48.266;14.192;2023-04-24T07:24:43;1.80;;;1.00;;
75456;SDS011;64036;48.266;14.192;2023-04-24T07:27:09;1.80;;;1.20;;
75456;SDS011;64036;48.266;14.192;2023-04-24T07:29:37;1.30;;;1.10;;
75456;SDS011;64036;48.266;14.192;2023-04-24T07:32:09;1.60;;;1.20;;
75456;SDS011;64036;48.266;14.192;2023-04-24T07:34:35;1.60;;;1.10;;
75456;SDS011;64036;48.266;14.192;2023-04-24T07:37:04;1.40;;;1.10;;
75456;SDS011;64036;48.266;14.192;2023-04-24T07:39:30;1.80;;;1.20;;
75456;SDS011;64036;48.266;14.192;2023-04-24T07:42:01;1.10;;;1.00;;
75456;SDS011;64036;48.266;14.192;2023-04-24T07:44:29;1.40;;;1.10;;
75456;SDS011;64036;48.266;14.192;2023-04-24T07:46:58;1.20;;;1.10;;
75456;SDS011;64036;48.266;14.192;2023-04-24T07:49:24;1.50;;;1.10;;
75456;SDS011;64036;48.266;14.192;2023-04-24T07:51:55;1.40;;;1.10;;
75456;SDS011;64036;48.266;14.192;2023-04-24T07:54:21;2.10;;;1.40;;
75456;SDS011;64036;48.266;14.192;2023-04-24T07:56:48;2.00;;;1.30;;
75456;SDS011;64036;48.266;14.192;2023-04-24T07:59:14;1.80;;;1.10;;
75456;SDS011;64036;48.266;14.192;2023-04-24T08:01:42;1.50;;;1.10;;
75456;SDS011;64036;48.266;14.192;2023-04-24T08:04:08;1.50;;;1.10;;
75456;SDS011;64036;48.266;14.192;2023-04-24T08:06:33;1.20;;;1.10;;
75456;SDS011;64036;48.266;14.192;2023-04-24T08:09:00;1.00;;;0.90;;
75456;SDS011;64036;48.266;14.192;2023-04-24T08:11:26;2.30;;;1.10;;
75456;SDS011;64036;48.266;14.192;2023-04-24T08:13:52;1.00;;;0.90;;
75456;SDS011;64036;48.266;14.192;2023-04-24T08:16:21;1.80;;;1.00;;
75456;SDS011;64036;48.266;14.192;2023-04-24T08:18:48;1.30;;;0.90;;
75456;SDS011;64036;48.266;14.192;2023-04-24T08:21:14;1.20;;;1.00;;
75456;SDS011;64036;48.266;14.192;2023-04-24T08:23:51;1.20;;;1.10;;
75456;SDS011;64036;48.266;14.192;2023-04-24T08:26:17;1.50;;;1.00;;
75456;SDS011;64036;48.266;14.192;2023-04-24T08:28:42;1.00;;;0.90;;
75456;SDS011;64036;48.266;14.192;2023-04-24T08:31:08;1.30;;;0.90;;
75456;SDS011;64036;48.266;14.192;2023-04-24T08:33:34;1.10;;;1.00;;
75456;SDS011;64036;48.266;14.192;2023-04-24T08:36:04;1.30;;;1.10;;
75456;SDS011;64036;48.266;14.192;2023-04-24T08:38:30;2.10;;;1.10;;
75456;SDS011;64036;48.266;14.192;2023-04-24T08:40:58;1.30;;;1.10;;
75456;SDS011;64036;48.266;14.192;2023-04-24T08:43:26;1.40;;;1.00;;
75456;SDS011;64036;48.266;14.192;2023-04-24T08:45:55;1.20;;;1.10;;
75456;SDS011;64036;48.266;14.192;2023-04-24T08:48:23;1.40;;;1.10;;
75456;SDS011;64036;48.266;14.192;2023-04-24T08:50:50;2.80;;;1.30;;
75456;SDS011;64036;48.266;14.192;2023-04-24T08:53:18;2.70;;;1.00;;
75456;SDS011;64036;48.266;14.192;2023-04-24T08:55:47;1.50;;;1.00;;
75456;SDS011;64036;48.266;14.192;2023-04-24T08:58:15;2.30;;;1.10;;
75456;SDS011;64036;48.266;14.192;2023-04-24T09:00:41;1.00;;;1.00;;
75456;SDS011;64036;48.266;14.192;2023-04-24T09:03:13;1.40;;;1.10;;
75456;SDS011;64036;48.266;14.192;2023-04-24T09:05:42;1.20;;;1.00;;
75456;SDS011;64036;48.266;14.192;2023-04-24T09:08:11;2.40;;;1.10;;
75456;SDS011;64036;48.266;14.192;2023-04-24T09:10:39;2.70;;;1.30;;
75456;SDS011;64036;48.266;14.192;2023-04-24T09:13:05;2.10;;;0.90;;
75456;SDS011;64036;48.266;14.192;2023-04-24T09:15:34;1.50;;;1.00;;
75456;SDS011;64036;48.266;14.192;2023-04-24T09:18:01;1.70;;;1.10;;
75456;SDS011;64036;48.266;14.192;2023-04-24T09:20:27;1.60;;;1.10;;
75456;SDS011;64036;48.266;14.192;2023-04-24T09:23:01;1.10;;;1.00;;
75456;SDS011;64036;48.266;14.192;2023-04-24T09:25:34;1.50;;;1.00;;
75456;SDS011;64036;48.266;14.192;2023-04-24T09:28:02;1.70;;;1.00;;
75456;SDS011;64036;48.266;14.192;2023-04-24T09:30:29;1.30;;;0.90;;
75456;SDS011;64036;48.266;14.192;2023-04-24T09:33:12;3.20;;;1.00;;
75456;SDS011;64036;48.266;14.192;2023-04-24T09:35:41;1.00;;;0.80;;
75456;SDS011;64036;48.266;14.192;2023-04-24T09:38:08;1.10;;;1.00;;
75456;SDS011;64036;48.266;14.192;2023-04-24T09:40:35;1.50;;;0.90;;
75456;SDS011;64036;48.266;14.192;2023-04-24T09:43:03;1.10;;;1.00;;
75456;SDS011;64036;48.266;14.192;2023-04-24T09:45:35;0.80;;;0.80;;
75456;SDS011;64036;48.266;14.192;2023-04-24T09:48:02;1.40;;;0.90;;
75456;SDS011;64036;48.266;14.192;2023-04-24T09:50:30;0.80;;;0.70;;
75456;SDS011;64036;48.266;14.192;2023-04-24T09:53:03;1.60;;;1.00;;
75456;SDS011;64036;48.266;14.192;2023-04-24T09:55:31;1.20;;;1.10;;
75456;SDS011;64036;48.266;14.192;2023-04-24T09:58:00;0.90;;;0.80;;
75456;SDS011;64036;48.266;14.192;2023-04-24T10:00:32;0.90;;;0.70;;
75456;SDS011;64036;48.266;14.192;2023-04-24T10:03:05;0.90;;;0.90;;
75456;SDS011;64036;48.266;14.192;2023-04-24T10:05:36;1.70;;;1.20;;
75456;SDS011;64036;48.266;14.192;2023-04-24T10:08:07;1.90;;;1.10;;
75456;SDS011;64036;48.266;14.192;2023-04-24T10:10:40;1.00;;;0.90;;
75456;SDS011;64036;48.266;14.192;2023-04-24T10:13:11;2.50;;;1.00;;
75456;SDS011;64036;48.266;14.192;2023-04-24T10:15:38;1.70;;;1.00;;
75456;SDS011;64036;48.266;14.192;2023-04-24T10:18:08;2.10;;;1.00;;
75456;SDS011;64036;48.266;14.192;2023-04-24T10:20:36;2.00;;;1.00;;
75456;SDS011;64036;48.266;14.192;2023-04-24T10:23:03;1.10;;;0.90;;
75456;SDS011;64036;48.266;14.192;2023-04-24T10:25:31;1.10;;;1.00;;
75456;SDS011;64036;48.266;14.192;2023-04-24T10:27:59;1.00;;;0.90;;
75456;SDS011;64036;48.266;14.192;2023-04-24T10:30:31;0.90;;;0.80;;
75456;SDS011;64036;48.266;14.192;2023-04-24T10:33:02;0.80;;;0.80;;
75456;SDS011;64036;48.266;14.192;2023-04-24T10:35:40;1.00;;;0.80;;
75456;SDS011;64036;48.266;14.192;2023-04-24T10:38:11;2.40;;;0.90;;
75456;SDS011;64036;48.266;14.192;2023-04-24T10:40:37;1.10;;;0.80;;
75456;SDS011;64036;48.266;14.192;2023-04-24T10:43:08;1.10;;;0.90;;
75456;SDS011;64036;48.266;14.192;2023-04-24T10:45:37;1.30;;;0.80;;
75456;SDS011;64036;48.266;14.192;2023-04-24T10:48:04;1.40;;;1.00;;
75456;SDS011;64036;48.266;14.192;2023-04-24T10:53:23;2.90;;;1.20;;
75456;SDS011;64036;48.266;14.192;2023-04-24T10:56:09;2.70;;;1.00;;
75456;SDS011;64036;48.266;14.192;2023-04-24T11:01:02;1.90;;;1.00;;
75456;SDS011;64036;48.266;14.192;2023-04-24T11:03:29;1.30;;;0.90;;
75456;SDS011;64036;48.266;14.192;2023-04-24T11:11:14;1.10;;;0.80;;
75456;SDS011;64036;48.266;14.192;2023-04-24T11:16:33;1.20;;;0.80;;
75456;SDS011;64036;48.266;14.192;2023-04-24T11:21:43;1.40;;;0.90;;
75456;SDS011;64036;48.266;14.192;2023-04-24T11:32:36;0.90;;;0.90;;
75456;SDS011;64036;48.266;14.192;2023-04-24T11:35:08;1.90;;;1.00;;
75456;SDS011;64036;48.266;14.192;2023-04-24T11:37:40;1.80;;;0.90;;
75456;SDS011;64036;48.266;14.192;2023-04-24T11:40:09;0.70;;;0.70;;
75456;SDS011;64036;48.266;14.192;2023-04-24T11:42:40;2.00;;;0.80;;
75456;SDS011;64036;48.266;14.192;2023-04-24T11:47:43;0.90;;;0.80;;
75456;SDS011;64036;48.266;14.192;2023-04-24T11:50:14;2.90;;;0.80;;
75456;SDS011;64036;48.266;14.192;2023-04-24T11:57:43;3.00;;;1.00;;
75456;SDS011;64036;48.266;14.192;2023-04-24T12:00:24;1.60;;;0.90;;
75456;SDS011;64036;48.266;14.192;2023-04-24T12:02:50;2.40;;;1.30;;
75456;SDS011;64036;48.266;14.192;2023-04-24T12:05:23;1.10;;;0.70;;
75456;SDS011;64036;48.266;14.192;2023-04-24T12:07:54;1.60;;;0.90;;
75456;SDS011;64036;48.266;14.192;2023-04-24T12:10:25;0.80;;;0.80;;
75456;SDS011;64036;48.266;14.192;2023-04-24T12:12:56;1.00;;;0.70;;
75456;SDS011;64036;48.266;14.192;2023-04-24T12:15:22;0.50;;;0.50;;
75456;SDS011;64036;48.266;14.192;2023-04-24T12:17:51;1.40;;;0.70;;
75456;SDS011;64036;48.266;14.192;2023-04-24T12:20:17;1.20;;;0.60;;
75456;SDS011;64036;48.266;14.192;2023-04-24T12:23:00;0.90;;;0.60;;
75456;SDS011;64036;48.266;14.192;2023-04-24T12:25:31;1.50;;;0.60;;
75456;SDS011;64036;48.266;14.192;2023-04-24T12:30:31;0.50;;;0.50;;
75456;SDS011;64036;48.266;14.192;2023-04-24T12:32:59;1.00;;;0.60;;
75456;SDS011;64036;48.266;14.192;2023-04-24T12:35:31;2.50;;;0.70;;
75456;SDS011;64036;48.266;14.192;2023-04-24T12:38:12;0.90;;;0.70;;
75456;SDS011;64036;48.266;14.192;2023-04-24T12:40:39;0.80;;;0.70;;
75456;SDS011;64036;48.266;14.192;2023-04-24T12:43:18;0.60;;;0.60;;
75456;SDS011;64036;48.266;14.192;2023-04-24T12:45:45;0.70;;;0.70;;
75456;SDS011;64036;48.266;14.192;2023-04-24T12:48:11;1.40;;;0.60;;
75456;SDS011;64036;48.266;14.192;2023-04-24T12:50:39;1.00;;;0.60;;
75456;SDS011;64036;48.266;14.192;2023-04-24T12:53:06;2.60;;;0.70;;
75456;SDS011;64036;48.266;14.192;2023-04-24T12:55:33;2.00;;;0.80;;
75456;SDS011;64036;48.266;14.192;2023-04-24T12:57:59;1.10;;;0.80;;
75456;SDS011;64036;48.266;14.192;2023-04-24T13:00:24;2.10;;;0.90;;
75456;SDS011;64036;48.266;14.192;2023-04-24T13:02:50;1.20;;;1.00;;
75456;SDS011;64036;48.266;14.192;2023-04-24T13:05:16;1.10;;;1.00;;
75456;SDS011;64036;48.266;14.192;2023-04-24T13:07:42;0.80;;;0.80;;
75456;SDS011;64036;48.266;14.192;2023-04-24T13:10:08;0.80;;;0.80;;
75456;SDS011;64036;48.266;14.192;2023-04-24T13:12:37;1.10;;;1.00;;
75456;SDS011;64036;48.266;14.192;2023-04-24T13:15:04;0.90;;;0.80;;
75456;SDS011;64036;48.266;14.192;2023-04-24T13:17:30;1.00;;;0.90;;
75456;SDS011;64036;48.266;14.192;2023-04-24T13:19:56;1.00;;;1.00;;
75456;SDS011;64036;48.266;14.192;2023-04-24T13:22:21;1.30;;;1.00;;
75456;SDS011;64036;48.266;14.192;2023-04-24T13:24:47;1.00;;;1.00;;
75456;SDS011;64036;48.266;14.192;2023-04-24T13:27:16;1.20;;;1.10;;
75456;SDS011;64036;48.266;14.192;2023-04-24T13:29:42;1.80;;;1.10;;
75456;SDS011;64036;48.266;14.192;2023-04-24T13:32:08;1.70;;;1.10;;
75456;SDS011;64036;48.266;14.192;2023-04-24T13:34:34;2.00;;;1.50;;
75456;SDS011;64036;48.266;14.192;2023-04-24T13:37:00;1.10;;;1.00;;
75456;SDS011;64036;48.266;14.192;2023-04-24T13:39:26;2.30;;;1.10;;
75456;SDS011;64036;48.266;14.192;2023-04-24T13:41:53;1.40;;;1.10;;
75456;SDS011;64036;48.266;14.192;2023-04-24T13:44:19;1.70;;;1.20;;
75456;SDS011;64036;48.266;14.192;2023-04-24T13:46:47;1.90;;;1.10;;
75456;SDS011;64036;48.266;14.192;2023-04-24T13:49:14;2.30;;;1.20;;
75456;SDS011;64036;48.266;14.192;2023-04-24T13:51:42;1.40;;;1.30;;
75456;SDS011;64036;48.266;14.192;2023-04-24T13:54:07;1.30;;;1.10;;
75456;SDS011;64036;48.266;14.192;2023-04-24T13:56:33;1.30;;;1.20;;
75456;SDS011;64036;48.266;14.192;2023-04-24T13:58:59;2.90;;;1.20;;
75456;SDS011;64036;48.266;14.192;2023-04-24T14:01:25;1.50;;;1.20;;
75456;SDS011;64036;48.266;14.192;2023-04-24T14:03:51;2.80;;;1.10;;
75456;SDS011;64036;48.266;14.192;2023-04-24T14:06:19;2.20;;;1.40;;
75456;SDS011;64036;48.266;14.192;2023-04-24T14:08:45;1.30;;;1.20;;
75456;SDS011;64036;48.266;14.192;2023-04-24T14:11:12;1.80;;;1.50;;
75456;SDS011;64036;48.266;14.192;2023-04-24T14:13:38;2.00;;;1.20;;
75456;SDS011;64036;48.266;14.192;2023-04-24T14:16:04;2.80;;;1.40;;
75456;SDS011;64036;48.266;14.192;2023-04-24T14:18:30;1.60;;;1.20;;
75456;SDS011;64036;48.266;14.192;2023-04-24T14:20:56;2.70;;;1.40;;
75456;SDS011;64036;48.266;14.192;2023-04-24T14:23:21;2.70;;;1.40;;
75456;SDS011;64036;48.266;14.192;2023-04-24T14:25:47;3.10;;;1.80;;
75456;SDS011;64036;48.266;14.192;2023-04-24T14:28:20;1.60;;;1.40;;
75456;SDS011;64036;48.266;14.192;2023-04-24T14:30:49;2.50;;;1.40;;
75456;SDS011;64036;48.266;14.192;2023-04-24T14:33:14;1.80;;;1.20;;
75456;SDS011;64036;48.266;14.192;2023-04-24T14:35:41;2.00;;;1.40;;
75456;SDS011;64036;48.266;14.192;2023-04-24T14:38:08;1.50;;;1.40;;
75456;SDS011;64036;48.266;14.192;2023-04-24T14:40:34;1.60;;;1.20;;
75456;SDS011;64036;48.266;14.192;2023-04-24T14:43:00;2.10;;;1.40;;
75456;SDS011;64036;48.266;14.192;2023-04-24T14:45:26;1.60;;;1.30;;
75456;SDS011;64036;48.266;14.192;2023-04-24T14:47:52;2.00;;;1.40;;
75456;SDS011;64036;48.266;14.192;2023-04-24T14:50:19;2.10;;;1.20;;
75456;SDS011;64036;48.266;14.192;2023-04-24T14:52:45;1.50;;;1.40;;
75456;SDS011;64036;48.266;14.192;2023-04-24T14:55:12;2.30;;;1.20;;
75456;SDS011;64036;48.266;14.192;2023-04-24T14:57:37;1.30;;;1.20;;
75456;SDS011;64036;48.266;14.192;2023-04-24T15:00:04;1.00;;;0.90;;
75456;SDS011;64036;48.266;14.192;2023-04-24T15:02:34;2.10;;;1.20;;
75456;SDS011;64036;48.266;14.192;2023-04-24T15:05:02;1.20;;;1.10;;
75456;SDS011;64036;48.266;14.192;2023-04-24T15:07:28;1.20;;;1.10;;
75456;SDS011;64036;48.266;14.192;2023-04-24T15:09:54;1.90;;;1.10;;
75456;SDS011;64036;48.266;14.192;2023-04-24T15:12:21;1.20;;;1.00;;
75456;SDS011;64036;48.266;14.192;2023-04-24T15:14:47;1.30;;;1.20;;
75456;SDS011;64036;48.266;14.192;2023-04-24T15:17:13;1.10;;;1.00;;
75456;SDS011;64036;48.266;14.192;2023-04-24T15:19:38;1.90;;;1.30;;